Time;durP1;ratioP1;P1;durP2;ratioP2;P2;SDS_P1;SDS_P2;PMS_P1;PMS_P2;Temp;Humidity;BMP_temperature;BMP_pressure;BME280_temperature;BME280_humidity;BME280_pressure;Samples;Min_cycle;Max_cycle;Signal;HPM_P1;HPM_P2
2022/05/28 00:02:04;;;;;;;6.40;2.38;;;14.00;99.60;;;;;;5052739;28;20028;-86
2022/05/28 00:04:30;;;;;;;4.57;2.17;;;13.90;99.50;;;;;;5070366;28;20058;-86
2022/05/28 00:06:55;;;;;;;8.02;2.35;;;13.90;99.60;;;;;;5057112;28;20115;-85
2022/05/28 00:09:21;;;;;;;9.30;2.33;;;13.90;99.60;;;;;;5055158;28;20031;-85
2022/05/28 00:11:46;;;;;;;5.97;2.35;;;13.80;99.50;;;;;;5056387;28;20025;-84
2022/05/28 00:14:12;;;;;;;5.47;2.65;;;13.80;99.50;;;;;;5056639;28;20086;-85
2022/05/28 00:16:39;;;;;;;6.43;2.30;;;13.80;99.60;;;;;;5056808;28;20036;-86
2022/05/28 00:19:06;;;;;;;3.88;2.40;;;13.80;99.60;;;;;;5055878;28;20028;-85
2022/05/28 00:21:32;;;;;;;5.35;2.50;;;13.80;99.60;;;;;;5056771;28;20046;-84
2022/05/28 00:23:58;;;;;;;3.13;2.30;;;13.80;99.60;;;;;;5056541;28;20032;-85
2022/05/28 00:26:23;;;;;;;6.47;2.58;;;13.70;99.50;;;;;;5052809;28;20471;-85
2022/05/28 00:28:50;;;;;;;6.70;2.22;;;13.70;99.50;;;;;;5054120;28;20020;-85
2022/05/28 00:31:16;;;;;;;5.90;2.40;;;13.60;99.60;;;;;;5061578;28;20044;-86
2022/05/28 00:33:42;;;;;;;3.58;2.17;;;13.60;99.90;;;;;;5064553;28;20028;-86
2022/05/28 00:36:09;;;;;;;3.97;2.03;;;13.60;99.60;;;;;;5060608;28;20772;-86
2022/05/28 00:38:35;;;;;;;4.60;2.47;;;13.50;99.60;;;;;;5078590;28;20397;-86
2022/05/28 00:41:01;;;;;;;3.67;2.10;;;13.60;99.60;;;;;;5056388;28;20372;-87
2022/05/28 00:43:28;;;;;;;5.28;2.10;;;13.50;99.60;;;;;;5075297;28;20074;-87
2022/05/28 00:46:00;;;;;;;2.25;1.95;;;13.50;99.60;;;;;;5059392;28;20063;-87
2022/05/28 00:48:29;;;;;;;;;;;13.50;99.60;;;;;;5059505;28;20028;-87
2022/05/28 00:50:58;;;;;;;4.80;2.25;;;13.50;99.40;;;;;;5059147;28;19904;-87
2022/05/28 00:53:25;;;;;;;4.68;2.22;;;13.50;99.40;;;;;;5051838;28;20052;-86
2022/05/28 00:55:50;;;;;;;5.85;2.30;;;13.40;99.50;;;;;;5056376;28;20021;-87
2022/05/28 00:58:16;;;;;;;6.47;2.40;;;13.40;99.40;;;;;;5038773;28;20035;-86
2022/05/28 01:00:41;;;;;;;4.85;2.30;;;13.40;99.50;;;;;;5038282;28;20064;-86
2022/05/28 01:03:21;;;;;;;4.05;2.13;;;13.40;99.50;;;;;;5072958;28;20047;-86
2022/05/28 01:05:59;;;;;;;5.15;2.78;;;13.40;99.50;;;;;;5067973;28;20025;-85
2022/05/28 01:08:37;;;;;;;4.03;2.20;;;13.30;99.50;;;;;;5056985;28;20116;-85
2022/05/28 01:11:10;;;;;;;5.03;2.45;;;13.30;99.60;;;;;;5055537;28;20063;-85
2022/05/28 01:13:44;;;;;;;5.13;2.03;;;13.20;99.60;;;;;;5056180;28;20016;-86
2022/05/28 01:16:15;;;;;;;3.05;2.30;;;13.20;99.60;;;;;;5055863;28;20054;-85
2022/05/28 01:18:47;;;;;;;6.65;2.85;;;13.20;99.60;;;;;;5073900;28;20025;-85
2022/05/28 01:21:19;;;;;;;;;;;13.20;99.50;;;;;;5074518;28;20436;-85
2022/05/28 01:23:50;;;;;;;3.75;2.13;;;13.10;99.40;;;;;;5056021;28;19912;-85
2022/05/28 01:26:20;;;;;;;5.57;2.30;;;13.10;99.20;;;;;;5055768;28;20112;-85
2022/05/28 01:28:58;;;;;;;4.75;2.40;;;13.00;99.00;;;;;;5055733;28;20025;-85
2022/05/28 01:31:26;;;;;;;4.25;2.22;;;12.90;98.90;;;;;;5055894;28;20017;-85
2022/05/28 01:33:52;;;;;;;10.27;2.20;;;12.90;99.00;;;;;;5055570;28;20012;-85
2022/05/28 01:36:19;;;;;;;3.45;1.80;;;12.80;98.90;;;;;;5054708;28;20554;-85
2022/05/28 01:38:47;;;;;;;6.80;2.33;;;12.80;98.90;;;;;;5063655;28;20031;-85
2022/05/28 01:41:14;;;;;;;8.40;2.47;;;12.80;99.00;;;;;;5073619;28;20033;-85
2022/05/28 01:43:43;;;;;;;5.55;2.53;;;12.90;99.00;;;;;;5055529;28;20020;-86
2022/05/28 01:46:11;;;;;;;5.88;2.00;;;12.80;99.00;;;;;;5053347;28;20458;-85
2022/05/28 01:48:39;;;;;;;9.35;2.35;;;12.80;98.80;;;;;;5072115;28;20059;-86
2022/05/28 01:51:07;;;;;;;7.57;2.10;;;12.90;98.80;;;;;;5055178;28;20039;-85
2022/05/28 01:56:21;;;;;;;9.10;2.28;;;12.80;98.70;;;;;;5071854;28;20032;-85
2022/05/28 01:58:46;;;;;;;5.57;2.10;;;12.80;98.50;;;;;;5051968;28;20471;-85
2022/05/28 02:01:12;;;;;;;5.97;2.35;;;12.80;98.50;;;;;;5035458;28;20032;-85
2022/05/28 02:03:41;;;;;;;5.10;2.03;;;12.70;98.50;;;;;;5035020;28;20036;-85
2022/05/28 02:06:07;;;;;;;6.18;2.40;;;12.70;98.40;;;;;;5054111;28;20227;-85
2022/05/28 02:08:37;;;;;;;6.55;2.25;;;12.70;98.50;;;;;;5073190;28;20107;-86
2022/05/28 02:11:16;;;;;;;8.68;2.45;;;12.70;98.50;;;;;;5055030;28;20556;-85
2022/05/28 02:14:11;;;;;;;4.65;1.75;;;12.60;98.40;;;;;;5073074;28;20032;-85
2022/05/28 02:16:46;;;;;;;7.45;2.17;;;12.60;98.40;;;;;;5054470;28;20021;-85
2022/05/28 02:19:23;;;;;;;4.95;2.10;;;12.60;98.40;;;;;;5054591;28;20032;-85
2022/05/28 02:22:00;;;;;;;9.40;1.95;;;12.60;98.30;;;;;;5072949;28;20025;-84
2022/05/28 02:24:40;;;;;;;5.80;1.98;;;12.60;98.20;;;;;;5055341;28;20029;-85
2022/05/28 02:27:12;;;;;;;7.65;2.17;;;12.50;98.20;;;;;;5055219;28;20036;-85
2022/05/28 02:29:38;;;;;;;6.00;1.80;;;12.40;98.10;;;;;;5053907;28;20029;-85
2022/05/28 02:32:17;;;;;;;5.82;1.73;;;12.40;98.10;;;;;;5071169;28;20031;-85
2022/05/28 02:34:45;;;;;;;10.25;1.92;;;12.30;98.00;;;;;;5066443;28;20016;-85
2022/05/28 02:37:12;;;;;;;5.07;1.77;;;12.30;98.00;;;;;;5050957;28;20035;-85
2022/05/28 02:39:37;;;;;;;6.40;1.55;;;12.20;98.00;;;;;;5054953;28;20051;-85
2022/05/28 02:42:03;;;;;;;4.38;1.98;;;12.20;98.00;;;;;;5055307;28;20074;-84
2022/05/28 02:44:29;;;;;;;7.40;1.70;;;12.20;98.00;;;;;;5052729;28;20056;-84
2022/05/28 02:46:54;;;;;;;5.82;2.20;;;12.20;98.00;;;;;;5072727;28;20027;-84
2022/05/28 02:49:20;;;;;;;6.35;1.90;;;12.10;97.90;;;;;;5055091;28;20033;-85
2022/05/28 02:51:45;;;;;;;4.97;1.63;;;12.10;97.90;;;;;;5055592;28;20025;-85
2022/05/28 02:54:11;;;;;;;6.05;2.03;;;12.10;97.90;;;;;;5054743;28;20058;-84
2022/05/28 02:56:36;;;;;;;5.03;1.77;;;12.10;97.80;;;;;;5055161;28;20016;-85
2022/05/28 02:59:02;;;;;;;6.50;1.77;;;12.00;97.80;;;;;;5073224;28;20047;-86
2022/05/28 03:01:33;;;;;;;4.63;2.00;;;11.90;97.80;;;;;;5052936;28;20463;-85
2022/05/28 03:03:59;;;;;;;4.10;1.90;;;11.90;97.80;;;;;;5054547;28;20079;-86
2022/05/28 03:06:25;;;;;;;4.28;1.83;;;11.90;97.70;;;;;;5055426;28;20083;-85
2022/05/28 03:08:51;;;;;;;5.05;1.50;;;11.80;97.70;;;;;;5073817;28;20131;-86
2022/05/28 03:11:17;;;;;;;3.28;1.70;;;11.80;97.70;;;;;;5055533;28;20020;-87
2022/05/28 03:13:43;;;;;;;4.40;1.65;;;11.70;97.70;;;;;;5055741;28;20051;-87
2022/05/28 03:16:09;;;;;;;5.30;1.98;;;11.70;97.60;;;;;;5054707;28;20036;-84
2022/05/28 03:18:35;;;;;;;4.28;1.67;;;11.60;97.60;;;;;;5055568;28;20475;-85
2022/05/28 03:21:00;;;;;;;7.82;1.83;;;11.60;97.60;;;;;;5055569;28;20021;-85
2022/05/28 03:23:26;;;;;;;3.47;1.80;;;11.60;97.60;;;;;;5058168;28;20043;-85
2022/05/28 03:25:52;;;;;;;4.00;1.83;;;11.50;97.80;;;;;;5054050;28;20496;-85
2022/05/28 03:28:18;;;;;;;6.88;2.40;;;11.50;97.60;;;;;;5058802;28;20032;-85
2022/05/28 03:30:44;;;;;;;6.88;1.80;;;11.50;97.60;;;;;;5077560;28;20055;-84
2022/05/28 03:33:09;;;;;;;3.97;1.70;;;11.40;97.60;;;;;;5058613;28;20031;-84
2022/05/28 03:35:37;;;;;;;6.05;2.05;;;11.40;97.60;;;;;;5059039;28;20095;-85
2022/05/28 03:38:04;;;;;;;3.13;1.50;;;11.40;97.60;;;;;;5055491;28;20038;-85
2022/05/28 03:40:30;;;;;;;5.40;2.00;;;11.40;97.60;;;;;;5058410;28;20696;-85
2022/05/28 03:42:55;;;;;;;5.20;1.90;;;11.30;97.60;;;;;;5076016;28;20048;-85
2022/05/28 03:45:21;;;;;;;5.60;1.77;;;11.30;97.70;;;;;;5057611;28;20036;-85
2022/05/28 03:47:46;;;;;;;4.05;1.70;;;11.30;97.70;;;;;;5058071;28;20071;-85
2022/05/28 03:50:12;;;;;;;5.07;2.10;;;11.30;97.70;;;;;;5057919;28;20070;-85
2022/05/28 03:52:37;;;;;;;4.22;1.85;;;11.30;97.70;;;;;;5056968;28;20024;-86
2022/05/28 03:55:03;;;;;;;3.03;1.70;;;11.20;97.70;;;;;;5057209;28;20013;-86
2022/05/28 03:57:32;;;;;;;4.68;1.80;;;11.20;97.70;;;;;;5057969;28;20016;-85
2022/05/28 03:59:58;;;;;;;6.05;2.08;;;11.20;97.70;;;;;;5056936;28;20101;-85
2022/05/28 04:02:25;;;;;;;5.18;1.88;;;11.10;97.60;;;;;;5057613;28;20036;-85
2022/05/28 04:04:50;;;;;;;7.30;1.77;;;11.00;97.60;;;;;;5057670;28;20111;-84
2022/05/28 04:07:16;;;;;;;6.15;1.83;;;11.00;97.70;;;;;;5057821;28;20130;-85
2022/05/28 04:09:43;;;;;;;5.18;1.80;;;10.90;97.80;;;;;;5057759;28;20029;-85
2022/05/28 04:12:09;;;;;;;3.30;1.75;;;10.90;97.90;;;;;;5057697;28;20021;-85
2022/05/28 04:14:35;;;;;;;8.05;2.08;;;10.80;97.90;;;;;;5074991;28;20474;-85
2022/05/28 04:17:01;;;;;;;6.53;1.73;;;10.90;97.90;;;;;;5057384;28;20024;-84
2022/05/28 04:19:27;;;;;;;6.57;1.70;;;10.80;97.80;;;;;;5075486;28;20069;-85
2022/05/28 04:21:52;;;;;;;5.97;1.90;;;10.80;97.90;;;;;;5055427;28;20056;-84
2022/05/28 04:24:18;;;;;;;5.22;2.10;;;10.80;98.00;;;;;;5053566;28;20033;-84
2022/05/28 04:26:43;;;;;;;5.65;2.00;;;10.80;98.10;;;;;;5056726;28;20020;-85
2022/05/28 04:29:09;;;;;;;4.10;1.90;;;10.80;98.10;;;;;;5056867;28;20375;-84
2022/05/28 04:31:35;;;;;;;4.63;2.03;;;10.80;98.00;;;;;;5075968;28;20020;-86
2022/05/28 04:34:00;;;;;;;7.07;2.28;;;10.80;98.00;;;;;;5057987;28;20692;-86
2022/05/28 04:36:26;;;;;;;7.45;2.15;;;10.80;98.20;;;;;;5057495;28;20398;-87
2022/05/28 04:38:52;;;;;;;5.00;2.10;;;10.90;98.10;;;;;;5057485;28;20031;-85
2022/05/28 04:41:17;;;;;;;7.53;2.08;;;10.90;98.00;;;;;;5057886;28;20059;-84
2022/05/28 04:43:44;;;;;;;5.55;2.05;;;10.90;98.00;;;;;;5058400;28;20068;-85
2022/05/28 04:51:36;;;;;;;8.98;2.20;;;11.00;98.00;;;;;;5051797;28;20049;-85
2022/05/28 04:55:09;;;;;;;4.78;2.00;;;11.00;98.00;;;;;;5001665;28;20487;-85
2022/05/28 04:58:14;;;;;;;6.55;2.05;;;11.00;97.90;;;;;;5033506;28;20100;-85
2022/05/28 05:01:59;;;;;;;7.25;2.28;;;11.00;97.70;;;;;;5004378;28;20096;-85
2022/05/28 05:05:27;;;;;;;5.00;1.90;;;11.00;97.60;;;;;;4983181;28;20395;-85
2022/05/28 05:12:29;;;;;;;5.05;1.80;;;11.00;97.60;;;;;;5033636;28;20032;-85
2022/05/28 05:15:40;;;;;;;6.55;2.00;;;11.10;97.60;;;;;;5028915;28;20034;-85
2022/05/28 05:19:09;;;;;;;7.70;1.70;;;11.30;97.50;;;;;;4998612;28;20124;-85
2022/05/28 05:22:29;;;;;;;8.30;1.73;;;11.50;97.40;;;;;;5015153;28;20158;-84
2022/05/28 05:30:03;;;;;;;8.40;2.20;;;11.50;97.10;;;;;;4952232;29;20078;-85
2022/05/28 05:33:23;;;;;;;12.00;2.08;;;11.50;96.90;;;;;;4856834;29;20450;-86
2022/05/28 05:36:54;;;;;;;7.40;1.80;;;11.50;96.90;;;;;;4834031;29;20028;-84
2022/05/28 05:44:09;;;;;;;7.25;1.63;;;11.40;96.90;;;;;;4913833;29;20046;-86
2022/05/28 05:47:44;;;;;;;6.65;2.53;;;11.40;97.00;;;;;;4857770;29;20074;-85
2022/05/28 05:50:50;;;;;;;7.90;1.80;;;11.40;97.00;;;;;;4821271;29;20091;-85
2022/05/28 13:06:12;;;;;;;3.33;0.60;;;20.20;57.30;;;;;;609476;22;20311;-92
2022/05/28 13:08:49;;;;;;;0.80;0.50;;;20.10;57.20;;;;;;5010607;28;20089;-90
2022/05/28 13:11:58;;;;;;;4.72;0.80;;;20.00;57.10;;;;;;5017142;28;20022;-90
2022/05/28 13:14:33;;;;;;;7.57;0.60;;;19.80;56.30;;;;;;4985225;28;20034;-89
2022/05/28 13:17:11;;;;;;;2.40;0.80;;;19.50;57.00;;;;;;4977680;28;20027;-90
2022/05/28 13:20:00;;;;;;;1.95;0.60;;;19.30;57.20;;;;;;5017277;28;20022;-89
2022/05/28 13:22:31;;;;;;;1.33;0.50;;;19.30;57.70;;;;;;5035840;28;20010;-88
2022/05/28 13:25:44;;;;;;;1.88;0.90;;;19.20;57.40;;;;;;5036498;28;20037;-88
2022/05/28 13:28:18;;;;;;;1.90;0.60;;;19.20;58.00;;;;;;5016481;28;20014;-88
2022/05/28 13:30:54;;;;;;;5.95;1.17;;;19.20;58.10;;;;;;5034254;28;20022;-88
2022/05/28 13:33:21;;;;;;;3.10;0.90;;;19.30;58.30;;;;;;5012324;28;20032;-88
2022/05/28 13:35:52;;;;;;;2.80;0.57;;;19.30;57.80;;;;;;5037080;28;20022;-89
2022/05/28 13:38:27;;;;;;;2.10;0.90;;;19.30;58.00;;;;;;5001590;28;20029;-90
2022/05/28 13:40:57;;;;;;;3.55;0.85;;;19.20;57.70;;;;;;4991240;28;20018;-90
2022/05/28 13:43:27;;;;;;;2.38;1.10;;;19.10;57.60;;;;;;4998171;28;20029;-90
2022/05/28 13:46:01;;;;;;;1.90;0.77;;;19.00;57.20;;;;;;4997298;28;20044;-90
2022/05/28 13:48:27;;;;;;;3.60;0.60;;;18.90;57.20;;;;;;4997977;28;20018;-90
2022/05/28 13:51:01;;;;;;;2.60;0.65;;;18.90;58.10;;;;;;4996242;28;20050;-90
2022/05/28 13:53:34;;;;;;;3.33;0.60;;;18.90;57.20;;;;;;4996603;28;20089;-90
2022/05/28 13:56:03;;;;;;;5.45;0.80;;;18.80;57.30;;;;;;4995632;28;20026;-89
2022/05/28 13:58:41;;;;;;;6.47;0.70;;;18.70;57.30;;;;;;4996187;28;20041;-90
2022/05/28 14:01:10;;;;;;;3.47;1.00;;;18.50;57.20;;;;;;4995771;28;20524;-90
2022/05/28 14:03:39;;;;;;;8.98;5.50;;;18.40;57.30;;;;;;4996203;28;20055;-90
2022/05/28 14:06:23;;;;;;;4.30;0.90;;;18.30;57.50;;;;;;5016239;28;20056;-87
2022/05/28 14:08:51;;;;;;;7.13;2.90;;;18.30;57.40;;;;;;5011068;28;20038;-91
2022/05/28 14:11:31;;;;;;;1.63;0.85;;;18.20;58.40;;;;;;4997882;28;20029;-91
2022/05/28 14:14:13;;;;;;;1.83;0.70;;;18.30;57.70;;;;;;4998339;28;20026;-91
2022/05/28 14:16:48;;;;;;;3.08;0.75;;;18.30;57.70;;;;;;5011785;22;20046;-91
2022/05/28 14:20:05;;;;;;;2.22;0.60;;;18.30;57.80;;;;;;4995997;28;20101;-89
2022/05/28 14:22:51;;;;;;;1.60;0.60;;;18.40;57.70;;;;;;4994894;28;20038;-91
2022/05/28 14:25:40;;;;;;;3.10;0.60;;;18.50;57.00;;;;;;5004181;28;20053;-90
2022/05/28 14:28:16;;;;;;;3.10;0.82;;;18.40;56.10;;;;;;5014616;28;20120;-90
2022/05/28 14:30:53;;;;;;;2.55;0.70;;;18.30;55.70;;;;;;5014550;28;20041;-91
2022/05/28 14:33:31;;;;;;;2.90;0.60;;;18.10;56.00;;;;;;5010301;28;20030;-90
2022/05/28 14:36:33;;;;;;;1.48;0.65;;;18.00;56.20;;;;;;5014910;28;20084;-90
2022/05/28 14:39:19;;;;;;;1.33;0.70;;;17.80;56.70;;;;;;4992647;28;20073;-90
2022/05/28 14:42:13;;;;;;;2.35;0.50;;;17.80;57.20;;;;;;5031765;28;20064;-91
2022/05/28 14:44:42;;;;;;;2.67;0.60;;;17.70;57.30;;;;;;5010613;28;20033;-91
2022/05/28 14:47:43;;;;;;;2.30;0.55;;;17.70;57.40;;;;;;5011126;28;20051;-90
2022/05/28 14:50:09;;;;;;;2.10;0.65;;;17.70;57.70;;;;;;5035140;28;20037;-89
2022/05/28 14:52:41;;;;;;;2.55;0.93;;;17.80;57.70;;;;;;5027521;28;20033;-90
2022/05/28 14:55:43;;;;;;;3.75;1.02;;;17.70;57.30;;;;;;5027356;28;20218;-89
2022/05/28 14:58:44;;;;;;;3.22;0.90;;;17.70;57.50;;;;;;5016107;28;20017;-90
2022/05/28 15:01:30;;;;;;;2.22;0.63;;;17.60;57.30;;;;;;5012106;28;20097;-90
2022/05/28 15:04:13;;;;;;;1.63;0.63;;;17.60;57.80;;;;;;5015754;28;20106;-91
2022/05/28 15:07:29;;;;;;;2.88;0.80;;;17.50;57.70;;;;;;5002555;28;20042;-89
2022/05/28 15:10:00;;;;;;;3.88;0.60;;;17.50;58.30;;;;;;4974174;28;20134;-89
2022/05/28 15:12:32;;;;;;;3.72;0.77;;;17.50;58.30;;;;;;5015672;28;20084;-90
2022/05/28 15:14:59;;;;;;;;;;;17.50;58.50;;;;;;5012874;28;20125;-90
2022/05/28 15:17:29;;;;;;;3.28;0.70;;;17.60;58.90;;;;;;4981990;28;19914;-91
2022/05/28 15:19:57;;;;;;;2.55;0.68;;;17.70;58.20;;;;;;4979833;28;20113;-91
2022/05/28 15:22:37;;;;;;;5.30;0.60;;;17.80;58.00;;;;;;4990664;28;20508;-91
2022/05/28 15:25:09;;;;;;;2.00;0.70;;;17.80;58.20;;;;;;5005386;28;20022;-90
2022/05/28 15:27:35;;;;;;;1.13;0.52;;;17.80;57.70;;;;;;4999586;28;20033;-90
2022/05/28 15:30:01;;;;;;;4.53;1.63;;;17.80;58.00;;;;;;4993589;28;20399;-91
2022/05/28 15:32:35;;;;;;;2.65;1.00;;;17.90;57.30;;;;;;4978981;28;20026;-89
2022/05/28 15:35:01;;;;;;;5.32;0.77;;;17.90;57.10;;;;;;4978709;28;20034;-90
2022/05/28 15:40:16;;;;;;;1.92;0.60;;;18.00;57.20;;;;;;4997966;28;20501;-91
2022/05/28 15:42:45;;;;;;;2.97;0.63;;;17.90;56.50;;;;;;4978212;28;20046;-90
2022/05/28 15:45:18;;;;;;;4.80;0.60;;;17.90;56.60;;;;;;4988332;28;20562;-90
2022/05/28 15:47:45;;;;;;;2.22;0.82;;;17.70;56.00;;;;;;4978126;28;20515;-90
2022/05/28 15:50:17;;;;;;;0.98;0.50;;;17.60;56.40;;;;;;4978291;28;20026;-91
2022/05/28 15:52:43;;;;;;;1.70;0.73;;;17.50;56.60;;;;;;4977577;28;20034;-91
2022/05/28 15:55:13;;;;;;;3.67;0.63;;;17.50;56.60;;;;;;4988104;28;20033;-90
2022/05/28 15:57:53;;;;;;;2.15;0.50;;;17.50;56.20;;;;;;4979021;28;20073;-91
2022/05/28 16:00:23;;;;;;;1.45;0.52;;;17.50;56.50;;;;;;4977733;28;20026;-90
2022/05/28 16:02:54;;;;;;;3.28;0.55;;;17.50;56.70;;;;;;4977948;28;20034;-91
2022/05/28 16:05:19;;;;;;;2.15;0.50;;;17.60;56.80;;;;;;4977871;28;20075;-89
2022/05/28 16:07:56;;;;;;;2.13;0.60;;;17.70;57.10;;;;;;4992690;28;20033;-90
2022/05/28 16:10:22;;;;;;;1.92;1.00;;;17.70;56.90;;;;;;4990203;28;20030;-91
2022/05/28 16:12:48;;;;;;;4.70;0.70;;;17.70;56.90;;;;;;4996067;28;20467;-90
2022/05/28 16:15:14;;;;;;;4.03;0.80;;;17.70;57.00;;;;;;4990908;28;20029;-90
2022/05/28 16:17:39;;;;;;;1.05;0.65;;;17.60;57.10;;;;;;5034722;28;20308;-91
2022/05/28 16:20:06;;;;;;;2.10;1.30;;;17.60;57.50;;;;;;5016997;28;20121;-91
2022/05/28 16:22:34;;;;;;;11.25;3.70;;;17.60;57.30;;;;;;5016645;28;20071;-90
2022/05/28 16:25:00;;;;;;;2.95;0.70;;;17.60;57.50;;;;;;5015853;28;20025;-91
2022/05/28 16:27:26;;;;;;;2.90;0.57;;;17.60;57.30;;;;;;5016415;28;20043;-91
2022/05/28 16:29:51;;;;;;;0.93;0.70;;;17.60;57.20;;;;;;5015621;28;20030;-91
2022/05/28 16:32:17;;;;;;;2.30;0.55;;;17.60;57.00;;;;;;5034422;28;20103;-91
2022/05/28 16:34:43;;;;;;;2.63;0.80;;;17.50;56.90;;;;;;5015787;28;20404;-90
2022/05/28 16:37:08;;;;;;;2.90;0.60;;;17.40;56.90;;;;;;5016484;28;20021;-90
2022/05/28 16:39:34;;;;;;;1.42;0.60;;;17.40;56.70;;;;;;5016906;28;20540;-90
2022/05/28 16:42:02;;;;;;;2.15;0.80;;;17.30;57.10;;;;;;5016124;28;20105;-90
2022/05/28 16:44:28;;;;;;;3.25;0.73;;;17.20;57.50;;;;;;5007370;28;20057;-90
2022/05/28 16:46:53;;;;;;;0.88;0.45;;;17.20;57.40;;;;;;5082049;23;20048;-85
2022/05/28 16:49:19;;;;;;;1.83;0.70;;;17.20;57.40;;;;;;5078507;28;20032;-88
2022/05/28 16:51:44;;;;;;;2.38;0.70;;;17.10;57.50;;;;;;5077630;28;20024;-87
2022/05/28 16:54:10;;;;;;;2.20;0.70;;;17.10;57.70;;;;;;5076847;28;20039;-85
2022/05/28 16:56:39;;;;;;;2.38;1.10;;;17.00;57.70;;;;;;5079700;28;20099;-87
2022/05/28 16:59:06;;;;;;;2.95;1.13;;;17.00;57.50;;;;;;5096161;28;20020;-86
2022/05/28 17:01:31;;;;;;;2.22;0.80;;;16.90;57.90;;;;;;5078368;28;20408;-87
2022/05/28 17:03:58;;;;;;;3.80;0.82;;;17.00;57.90;;;;;;5097684;28;20107;-86
2022/05/28 17:06:24;;;;;;;3.70;0.80;;;16.90;57.80;;;;;;5077495;28;20170;-84
2022/05/28 17:08:49;;;;;;;2.80;1.00;;;16.90;57.70;;;;;;5094491;28;20056;-86
2022/05/28 17:11:18;;;;;;;0.88;0.50;;;16.90;57.90;;;;;;5078567;28;20020;-85
2022/05/28 17:13:44;;;;;;;2.45;0.50;;;16.90;57.80;;;;;;5088915;28;20048;-85
2022/05/28 17:16:10;;;;;;;1.55;0.50;;;16.90;57.90;;;;;;5076670;28;20107;-85
2022/05/28 17:18:36;;;;;;;1.63;0.70;;;17.00;58.00;;;;;;5076740;28;20120;-85
2022/05/28 17:21:02;;;;;;;1.55;0.70;;;16.90;58.00;;;;;;5078165;28;20474;-87
2022/05/28 17:23:29;;;;;;;1.10;0.50;;;16.90;57.80;;;;;;5079736;28;20482;-85
2022/05/28 17:25:54;;;;;;;1.63;0.70;;;16.90;57.90;;;;;;5097966;28;20031;-84
2022/05/28 17:28:20;;;;;;;2.33;0.60;;;16.80;57.90;;;;;;5080244;28;20027;-87
2022/05/28 17:30:48;;;;;;;4.10;0.80;;;16.80;58.10;;;;;;5080444;28;20105;-85
2022/05/28 17:33:19;;;;;;;1.85;0.70;;;16.80;58.30;;;;;;5078465;28;20028;-86
2022/05/28 17:35:45;;;;;;;2.35;0.65;;;16.80;58.60;;;;;;5076465;28;20026;-88
2022/05/28 17:38:13;;;;;;;3.58;0.73;;;16.80;58.80;;;;;;5075801;28;20107;-89
2022/05/28 17:40:38;;;;;;;2.97;1.15;;;16.80;59.60;;;;;;5075417;28;20463;-86
2022/05/28 17:43:04;;;;;;;2.03;1.63;;;16.80;59.30;;;;;;5077170;28;20043;-85
2022/05/28 17:45:32;;;;;;;0.70;0.70;;;16.80;60.00;;;;;;5077643;28;20035;-84
2022/05/28 17:47:57;;;;;;;1.45;0.70;;;16.90;60.00;;;;;;5074174;28;20470;-85
2022/05/28 17:50:24;;;;;;;5.53;3.00;;;16.80;59.70;;;;;;5074876;28;20042;-86
2022/05/28 17:52:50;;;;;;;3.85;0.98;;;16.90;59.70;;;;;;5063819;28;20398;-85
2022/05/28 17:55:17;;;;;;;2.78;0.73;;;16.80;59.20;;;;;;5071459;28;20027;-87
2022/05/28 17:57:46;;;;;;;0.75;0.60;;;16.70;59.10;;;;;;5067353;28;20045;-87
2022/05/28 18:00:13;;;;;;;2.28;0.73;;;16.70;59.20;;;;;;5070753;28;20031;-85
2022/05/28 18:02:40;;;;;;;2.45;0.93;;;16.60;59.20;;;;;;5076154;28;20078;-86
2022/05/28 18:05:07;;;;;;;2.00;0.80;;;16.50;59.20;;;;;;5075920;28;20021;-87
2022/05/28 18:07:33;;;;;;;1.13;0.65;;;16.50;59.70;;;;;;5073333;28;20485;-87
2022/05/28 18:09:58;;;;;;;1.83;0.80;;;16.50;60.10;;;;;;5074844;28;20036;-86
2022/05/28 18:12:24;;;;;;;3.38;0.80;;;16.50;60.20;;;;;;5073931;28;20078;-84
2022/05/28 18:14:50;;;;;;;2.00;0.60;;;16.40;60.00;;;;;;5074628;28;20481;-83
2022/05/28 18:17:33;;;;;;;3.08;0.70;;;16.40;60.00;;;;;;5075361;28;20016;-88
2022/05/28 18:20:01;;;;;;;3.10;1.10;;;16.40;60.20;;;;;;5075449;28;20383;-83
2022/05/28 18:22:27;;;;;;;4.38;1.27;;;16.40;60.60;;;;;;5075215;28;20024;-85
2022/05/28 18:24:53;;;;;;;1.55;0.85;;;16.40;61.00;;;;;;5075328;28;20117;-84
2022/05/28 18:27:27;;;;;;;2.88;1.00;;;16.30;60.90;;;;;;5064968;28;20041;-86
2022/05/28 18:29:53;;;;;;;1.65;0.90;;;16.30;61.20;;;;;;5075665;28;20095;-85
2022/05/28 18:32:19;;;;;;;2.53;0.95;;;16.30;61.70;;;;;;5075644;28;20082;-85
2022/05/28 18:34:45;;;;;;;1.75;0.82;;;16.30;61.80;;;;;;5075142;28;20475;-85
2022/05/28 18:37:13;;;;;;;3.33;0.73;;;16.20;61.60;;;;;;5075577;28;20359;-84
2022/05/28 18:39:49;;;;;;;2.17;0.90;;;16.20;61.60;;;;;;5075527;28;20039;-84
2022/05/28 18:42:17;;;;;;;1.30;0.88;;;16.20;61.40;;;;;;5077083;28;20443;-83
2022/05/28 18:44:43;;;;;;;1.67;0.85;;;16.20;61.90;;;;;;5071311;28;20052;-85
2022/05/28 18:47:09;;;;;;;2.38;0.75;;;16.10;61.80;;;;;;5072334;28;20033;-86
2022/05/28 18:49:34;;;;;;;2.50;0.93;;;16.10;61.70;;;;;;5056493;28;20035;-86
2022/05/28 18:52:00;;;;;;;2.15;0.98;;;16.00;61.70;;;;;;5074733;28;20024;-86
2022/05/28 18:54:27;;;;;;;2.47;0.93;;;15.90;62.00;;;;;;5077513;28;20098;-85
2022/05/28 18:56:56;;;;;;;1.75;0.63;;;15.90;62.10;;;;;;5084887;28;20017;-86
2022/05/28 18:59:28;;;;;;;2.60;0.90;;;15.80;62.20;;;;;;5079790;28;20033;-86
2022/05/28 19:01:54;;;;;;;2.10;0.90;;;15.80;62.60;;;;;;5082782;28;20024;-86
2022/05/28 19:04:20;;;;;;;3.55;1.20;;;15.80;62.60;;;;;;5079636;28;20024;-84
2022/05/28 19:06:51;;;;;;;3.78;0.80;;;15.80;62.80;;;;;;5081237;28;20031;-87
2022/05/28 19:09:22;;;;;;;1.63;1.15;;;15.80;62.50;;;;;;5079329;28;20024;-85
2022/05/28 19:11:52;;;;;;;1.63;0.95;;;15.80;62.50;;;;;;5081329;28;20035;-85
2022/05/28 19:14:18;;;;;;;1.63;1.10;;;15.80;62.80;;;;;;5079831;28;20054;-87
2022/05/28 19:16:50;;;;;;;3.47;1.15;;;15.80;62.80;;;;;;5079970;28;20075;-85
2022/05/28 19:19:16;;;;;;;5.03;1.30;;;15.80;62.80;;;;;;5082027;28;20021;-86
2022/05/28 19:21:45;;;;;;;2.42;0.95;;;15.70;62.80;;;;;;5079662;28;20024;-85
2022/05/28 19:24:11;;;;;;;4.55;1.42;;;15.70;63.10;;;;;;5084227;28;20493;-83
2022/05/28 19:29:27;;;;;;;2.95;1.48;;;15.60;63.10;;;;;;5078922;28;20028;-84
2022/05/28 19:31:59;;;;;;;3.03;1.40;;;15.60;63.40;;;;;;5077949;28;20021;-84
2022/05/28 19:34:25;;;;;;;3.87;1.47;;;15.50;63.30;;;;;;5081580;28;20062;-85
2022/05/28 19:36:51;;;;;;;2.85;1.20;;;15.50;63.60;;;;;;5084655;28;20021;-84
2022/05/28 19:39:16;;;;;;;4.93;1.23;;;15.50;64.30;;;;;;5084170;28;20071;-85
2022/05/28 19:41:43;;;;;;;1.85;1.35;;;15.50;63.80;;;;;;5084322;28;20032;-85
2022/05/28 19:44:13;;;;;;;2.47;1.27;;;15.50;63.60;;;;;;5083693;28;20027;-84
2022/05/28 19:46:40;;;;;;;3.85;1.45;;;15.50;64.10;;;;;;5076644;28;20040;-84
2022/05/28 19:49:06;;;;;;;1.92;1.33;;;15.50;64.20;;;;;;5078183;28;20024;-85
2022/05/28 19:51:31;;;;;;;2.40;1.30;;;15.50;64.40;;;;;;5076765;28;20107;-84
2022/05/28 19:53:57;;;;;;;1.98;1.30;;;15.50;64.70;;;;;;5074910;28;20063;-84
2022/05/28 19:56:23;;;;;;;2.80;1.40;;;15.50;64.90;;;;;;5075166;28;20035;-83
2022/05/28 19:58:49;;;;;;;4.07;1.50;;;15.50;65.00;;;;;;5074859;28;20027;-86
2022/05/28 20:01:16;;;;;;;3.20;1.30;;;15.40;65.00;;;;;;5076973;28;20025;-84
2022/05/28 20:03:42;;;;;;;3.10;1.55;;;15.40;65.20;;;;;;5077878;28;20013;-84
2022/05/28 20:06:09;;;;;;;4.88;1.33;;;15.40;65.40;;;;;;5077962;28;20032;-84
2022/05/28 20:08:35;;;;;;;2.55;1.08;;;15.30;65.40;;;;;;5077230;28;20478;-85
2022/05/28 20:11:02;;;;;;;6.47;1.27;;;15.30;65.50;;;;;;5077320;28;20027;-85
2022/05/28 20:13:28;;;;;;;3.45;1.13;;;15.30;65.70;;;;;;5076369;28;20082;-85
2022/05/28 20:15:55;;;;;;;3.33;1.15;;;15.30;65.70;;;;;;5078791;28;20020;-85
2022/05/28 20:18:21;;;;;;;4.22;1.50;;;15.20;65.80;;;;;;5077150;28;20109;-85
2022/05/28 20:20:47;;;;;;;3.00;1.50;;;15.10;65.90;;;;;;5077044;28;20092;-85
2022/05/28 20:23:27;;;;;;;2.42;1.13;;;15.10;66.00;;;;;;5076503;28;20075;-84
2022/05/28 20:25:52;;;;;;;12.77;6.75;;;15.00;66.30;;;;;;5078309;28;20044;-84
2022/05/28 20:28:18;;;;;;;5.50;1.77;;;15.00;66.50;;;;;;5076089;28;20371;-85
2022/05/28 20:30:43;;;;;;;3.65;1.30;;;15.00;66.40;;;;;;5076324;28;20124;-84
2022/05/28 20:33:11;;;;;;;2.03;1.40;;;15.00;66.60;;;;;;5076667;28;20167;-86
2022/05/28 20:35:38;;;;;;;3.70;1.38;;;15.00;66.80;;;;;;5077000;28;20496;-85
2022/05/28 20:38:05;;;;;;;3.20;1.20;;;14.90;66.90;;;;;;5076380;28;20165;-84
2022/05/28 20:40:30;;;;;;;3.80;1.20;;;14.90;67.00;;;;;;5076321;28;20056;-86
2022/05/28 20:42:56;;;;;;;2.47;1.25;;;14.90;67.20;;;;;;5076023;28;20081;-85
2022/05/28 20:45:23;;;;;;;1.98;1.10;;;14.80;67.30;;;;;;5075453;28;20025;-85
2022/05/28 20:47:57;;;;;;;3.95;1.33;;;14.80;67.50;;;;;;5091809;28;20032;-85
2022/05/28 20:50:26;;;;;;;2.35;1.40;;;14.80;67.70;;;;;;5079192;28;20114;-87
2022/05/28 20:52:52;;;;;;;3.03;1.45;;;14.70;67.80;;;;;;5084688;28;20024;-85